Time;durP1;ratioP1;P1;durP2;ratioP2;P2;SDS_P1;SDS_P2;PMS_P1;PMS_P2;Temp;Humidity;BMP_temperature;BMP_pressure;BME280_temperature;BME280_humidity;BME280_pressure;Samples;Min_cycle;Max_cycle;Signal;HPM_P1;HPM_P2
2023/10/05 00:02:08;;;;;;;1.25;1.05;;;7.20;99.90;;;;;;4986051;28;20030;-34
2023/10/05 00:04:40;;;;;;;1.48;1.02;;;7.20;99.90;;;;;;4986952;28;20034;-33
2023/10/05 00:07:07;;;;;;;1.30;1.15;;;7.10;99.90;;;;;;4985369;28;20114;-32
2023/10/05 00:09:32;;;;;;;2.63;1.30;;;7.10;99.90;;;;;;4982823;28;20046;-32
2023/10/05 00:12:01;;;;;;;1.60;1.30;;;7.00;99.90;;;;;;4990173;28;20574;-31
2023/10/05 00:14:27;;;;;;;1.40;1.10;;;7.00;99.90;;;;;;4988679;28;20026;-37
2023/10/05 00:16:55;;;;;;;1.30;1.20;;;7.00;99.90;;;;;;4981761;28;20026;-32
2023/10/05 00:19:21;;;;;;;3.07;1.60;;;7.00;99.90;;;;;;4984737;28;20042;-39
2023/10/05 00:21:50;;;;;;;1.40;1.30;;;6.80;99.90;;;;;;4987073;28;20053;-39
2023/10/05 00:24:26;;;;;;;2.33;1.35;;;6.90;99.90;;;;;;4981439;28;20452;-38
2023/10/05 00:26:52;;;;;;;1.40;1.30;;;6.90;99.90;;;;;;4981211;28;20113;-39
2023/10/05 00:31:44;;;;;;;2.72;1.45;;;6.90;99.90;;;;;;4984106;28;20031;-39
2023/10/05 00:34:21;;;;;;;4.43;1.70;;;6.90;99.90;;;;;;4986020;28;20026;-39
2023/10/05 00:36:50;;;;;;;2.95;1.63;;;6.90;99.90;;;;;;4987285;28;20030;-39
2023/10/05 00:39:17;;;;;;;1.75;1.33;;;6.90;99.90;;;;;;4984799;28;20034;-39
2023/10/05 00:41:42;;;;;;;3.28;1.60;;;6.90;99.90;;;;;;4990401;28;20372;-39
2023/10/05 00:44:08;;;;;;;1.70;1.60;;;6.90;99.90;;;;;;4984783;28;20094;-39
2023/10/05 00:46:37;;;;;;;2.70;2.10;;;7.00;99.90;;;;;;4986513;28;20034;-38
2023/10/05 00:51:31;;;;;;;2.20;1.27;;;6.60;99.90;;;;;;4987560;28;20026;-34
2023/10/05 00:53:58;;;;;;;;;;;6.60;99.90;;;;;;4984960;28;20022;-37
2023/10/05 00:56:24;;;;;;;1.10;1.10;;;6.40;99.90;;;;;;4984124;28;20289;-38
2023/10/05 00:58:56;;;;;;;1.10;1.10;;;6.40;99.90;;;;;;4983510;28;20030;-40
2023/10/05 01:01:32;;;;;;;1.20;1.10;;;6.50;99.90;;;;;;4983919;28;20065;-41
2023/10/05 01:06:54;;;;;;;1.48;1.25;;;6.50;99.90;;;;;;4990879;28;20026;-34
2023/10/05 01:11:54;;;;;;;1.65;1.55;;;6.60;99.90;;;;;;4985880;28;20038;-40
2023/10/05 01:14:23;;;;;;;1.35;1.25;;;6.60;99.90;;;;;;4985380;28;20035;-38
2023/10/05 01:16:49;;;;;;;1.50;1.40;;;6.60;99.90;;;;;;4986314;28;20048;-38
2023/10/05 01:19:14;;;;;;;1.33;1.23;;;6.60;99.90;;;;;;4991541;28;20391;-40
2023/10/05 01:21:43;;;;;;;1.50;1.40;;;6.50;99.90;;;;;;4987182;28;20035;-35
2023/10/05 01:24:10;;;;;;;1.85;1.20;;;6.60;99.90;;;;;;4986013;28;20039;-40
2023/10/05 01:26:37;;;;;;;1.40;1.25;;;6.40;99.90;;;;;;4979860;28;20543;-40
2023/10/05 01:29:03;;;;;;;2.33;1.75;;;6.40;99.90;;;;;;4993836;28;20092;-40
2023/10/05 01:31:29;;;;;;;2.10;1.63;;;6.40;99.90;;;;;;4978832;28;20069;-36
2023/10/05 01:33:58;;;;;;;1.48;1.38;;;6.40;99.90;;;;;;4985697;28;20062;-40
2023/10/05 01:36:24;;;;;;;2.00;1.40;;;6.40;99.90;;;;;;4985054;28;20117;-39
2023/10/05 01:38:54;;;;;;;1.45;1.33;;;6.50;99.90;;;;;;4985065;28;20129;-40
2023/10/05 01:41:22;;;;;;;2.28;1.83;;;6.50;99.90;;;;;;4987546;28;21015;-39
2023/10/05 01:43:48;;;;;;;;;;;6.50;99.90;;;;;;4985000;28;20073;-38
2023/10/05 01:46:14;;;;;;;1.60;1.50;;;6.50;99.90;;;;;;4987193;28;19913;-35
2023/10/05 01:48:41;;;;;;;3.75;1.60;;;6.40;99.90;;;;;;4981709;28;20749;-34
2023/10/05 01:51:21;;;;;;;1.77;1.45;;;6.20;99.90;;;;;;4984100;28;20034;-36
2023/10/05 01:53:51;;;;;;;1.35;1.20;;;6.20;99.90;;;;;;4987681;28;20030;-40
2023/10/05 01:56:20;;;;;;;1.30;1.30;;;6.20;99.90;;;;;;4978491;28;20038;-40
2023/10/05 01:58:50;;;;;;;1.27;1.17;;;6.20;99.90;;;;;;4980933;28;20106;-40
2023/10/05 02:01:27;;;;;;;1.70;1.60;;;6.10;99.90;;;;;;4981593;28;20077;-38
2023/10/05 02:03:54;;;;;;;1.75;1.52;;;6.10;99.90;;;;;;4980132;28;20049;-40
2023/10/05 02:06:20;;;;;;;4.47;1.77;;;5.80;99.90;;;;;;4974044;28;20039;-41
2023/10/05 02:08:46;;;;;;;2.55;2.00;;;5.80;99.90;;;;;;4989433;28;20038;-39
2023/10/05 02:11:24;;;;;;;1.90;1.58;;;5.90;99.90;;;;;;4987823;28;20081;-39
2023/10/05 02:13:52;;;;;;;3.47;1.58;;;5.90;99.90;;;;;;4981295;28;20400;-39
2023/10/05 02:16:20;;;;;;;1.60;1.50;;;6.00;99.90;;;;;;4984875;28;20031;-39
2023/10/05 02:18:47;;;;;;;1.75;1.65;;;6.00;99.90;;;;;;4989509;28;20483;-39
2023/10/05 02:21:30;;;;;;;2.80;1.73;;;6.10;99.90;;;;;;4981085;28;20502;-39
2023/10/05 02:23:58;;;;;;;2.00;1.90;;;6.10;99.90;;;;;;4990387;28;20049;-39
2023/10/05 02:26:24;;;;;;;1.85;1.60;;;6.10;99.90;;;;;;4979556;28;20026;-40
2023/10/05 02:28:51;;;;;;;4.38;1.70;;;6.10;99.90;;;;;;4981617;28;20031;-39
2023/10/05 02:31:19;;;;;;;2.35;1.75;;;6.10;99.90;;;;;;4975121;28;20038;-38
2023/10/05 02:33:45;;;;;;;2.85;1.90;;;6.10;99.90;;;;;;4985759;28;20069;-40
2023/10/05 02:36:11;;;;;;;1.77;1.60;;;6.20;99.90;;;;;;4984665;28;20220;-40
2023/10/05 02:38:47;;;;;;;2.28;1.67;;;6.00;99.90;;;;;;4988231;28;20033;-36
2023/10/05 02:41:13;;;;;;;1.65;1.50;;;5.90;99.90;;;;;;4987850;28;20061;-30
2023/10/05 02:43:39;;;;;;;1.52;1.40;;;5.80;99.90;;;;;;4988885;28;20485;-35
2023/10/05 02:46:10;;;;;;;1.60;1.50;;;5.70;99.90;;;;;;4985578;28;20085;-31
2023/10/05 02:48:38;;;;;;;1.65;1.48;;;5.70;99.90;;;;;;4983719;28;20031;-31
2023/10/05 02:51:05;;;;;;;2.85;1.95;;;5.80;99.90;;;;;;4987519;28;20088;-30
2023/10/05 02:53:41;;;;;;;4.85;1.60;;;5.90;99.90;;;;;;4982741;28;20037;-30
2023/10/05 02:56:22;;;;;;;2.08;1.80;;;5.90;99.90;;;;;;4983185;28;20041;-29
2023/10/05 02:58:54;;;;;;;2.55;1.63;;;5.90;99.90;;;;;;4978056;28;20472;-30
2023/10/05 03:01:23;;;;;;;3.58;1.73;;;5.90;99.90;;;;;;4986758;28;20092;-32
2023/10/05 03:03:51;;;;;;;2.85;1.60;;;5.90;99.90;;;;;;4988552;28;20037;-30
2023/10/05 03:06:17;;;;;;;1.67;1.40;;;5.90;99.90;;;;;;4985392;28;20087;-33
2023/10/05 03:08:48;;;;;;;2.95;2.25;;;5.90;99.90;;;;;;4984590;28;20037;-30
2023/10/05 03:11:14;;;;;;;2.58;1.45;;;5.90;99.90;;;;;;4995705;28;20034;-30
2023/10/05 03:13:39;;;;;;;1.95;1.48;;;5.90;99.90;;;;;;4987009;28;20084;-32
2023/10/05 03:16:10;;;;;;;1.80;1.70;;;5.90;99.90;;;;;;4988182;28;20023;-29
2023/10/05 03:18:42;;;;;;;1.77;1.50;;;5.80;99.90;;;;;;4986759;28;20026;-32
2023/10/05 03:21:09;;;;;;;1.40;1.30;;;5.70;99.90;;;;;;4983006;28;20506;-39
2023/10/05 03:23:37;;;;;;;1.88;1.50;;;5.70;99.90;;;;;;4980806;28;20026;-40
2023/10/05 03:26:02;;;;;;;2.67;1.33;;;5.60;99.90;;;;;;4977965;28;20027;-39
2023/10/05 03:28:33;;;;;;;1.77;1.65;;;5.60;99.90;;;;;;4988721;28;20060;-35
2023/10/05 03:31:06;;;;;;;1.98;1.65;;;5.50;99.90;;;;;;4982064;28;20262;-40
2023/10/05 03:33:33;;;;;;;2.75;1.38;;;5.60;99.90;;;;;;4976597;28;20027;-39
2023/10/05 03:36:03;;;;;;;3.38;1.60;;;5.60;99.90;;;;;;4990707;28;20030;-40
2023/10/05 03:38:29;;;;;;;1.90;1.80;;;5.70;99.90;;;;;;4980965;28;20027;-37
2023/10/05 03:40:59;;;;;;;2.38;1.80;;;5.70;99.90;;;;;;4979388;28;20705;-39
2023/10/05 03:43:25;;;;;;;1.80;1.50;;;5.80;99.90;;;;;;4982063;28;20019;-40
2023/10/05 03:45:50;;;;;;;2.45;1.88;;;5.80;99.90;;;;;;4989606;28;20030;-39
2023/10/05 03:48:16;;;;;;;2.10;1.70;;;5.70;99.90;;;;;;4983258;28;20199;-40
2023/10/05 03:50:41;;;;;;;1.95;1.85;;;5.70;99.90;;;;;;4984843;28;20038;-30
2023/10/05 03:53:15;;;;;;;1.83;1.70;;;5.80;99.90;;;;;;4977987;28;20033;-30
2023/10/05 03:55:41;;;;;;;2.00;1.77;;;5.70;99.90;;;;;;4985660;28;20039;-32
2023/10/05 03:58:07;;;;;;;1.88;1.65;;;5.70;99.90;;;;;;4989888;28;20036;-31
2023/10/05 04:00:35;;;;;;;1.73;1.63;;;5.70;99.90;;;;;;4983274;28;20034;-30
2023/10/05 04:03:02;;;;;;;1.60;1.50;;;5.70;99.90;;;;;;4992807;28;20054;-30
2023/10/05 04:05:28;;;;;;;1.98;1.83;;;5.70;99.90;;;;;;4983307;28;20100;-34
2023/10/05 04:08:00;;;;;;;1.70;1.60;;;5.70;99.90;;;;;;4990166;28;20073;-30
2023/10/05 04:10:46;;;;;;;1.70;1.60;;;5.70;99.90;;;;;;4985538;28;20495;-31
2023/10/05 04:13:15;;;;;;;1.73;1.60;;;5.80;99.90;;;;;;4984258;28;20075;-30
2023/10/05 04:15:41;;;;;;;2.63;2.20;;;5.80;99.90;;;;;;4981406;28;20030;-33
2023/10/05 04:18:15;;;;;;;2.33;2.00;;;5.80;99.90;;;;;;4987068;28;20675;-29
2023/10/05 04:20:43;;;;;;;2.40;1.65;;;5.80;99.90;;;;;;4992464;28;20030;-30
2023/10/05 04:23:10;;;;;;;3.60;2.25;;;5.80;99.90;;;;;;4987172;28;20108;-30
2023/10/05 04:25:36;;;;;;;2.47;1.80;;;5.80;99.90;;;;;;4988254;28;20041;-34
2023/10/05 04:28:01;;;;;;;3.03;2.00;;;5.80;99.90;;;;;;4991172;28;20034;-29
2023/10/05 04:30:27;;;;;;;2.17;1.98;;;5.70;99.90;;;;;;4986507;28;20056;-36
2023/10/05 04:32:53;;;;;;;2.03;1.85;;;5.70;99.90;;;;;;4980946;28;20053;-33
2023/10/05 04:35:28;;;;;;;2.15;1.80;;;5.70;99.90;;;;;;4982469;28;20026;-33
2023/10/05 04:37:59;;;;;;;3.03;1.98;;;5.70;99.90;;;;;;4990610;28;20563;-32
2023/10/05 04:40:24;;;;;;;1.52;1.42;;;5.70;99.90;;;;;;4987370;28;20169;-34
2023/10/05 04:42:58;;;;;;;2.05;1.60;;;5.70;99.90;;;;;;4986531;28;20113;-34
2023/10/05 04:45:24;;;;;;;2.15;1.70;;;5.50;99.90;;;;;;4988098;28;20035;-33
2023/10/05 04:47:50;;;;;;;1.60;1.50;;;5.50;99.90;;;;;;4981947;28;20133;-33
2023/10/05 04:50:17;;;;;;;1.88;1.70;;;5.50;99.90;;;;;;4980852;28;20061;-34
2023/10/05 04:52:45;;;;;;;2.15;1.55;;;5.50;99.90;;;;;;4982807;28;20096;-33
2023/10/05 04:55:18;;;;;;;2.15;1.75;;;5.50;99.90;;;;;;4981082;28;20026;-33
2023/10/05 04:57:50;;;;;;;3.22;1.70;;;5.50;99.90;;;;;;4985597;28;20480;-33
2023/10/05 05:03:16;;;;;;;4.05;1.80;;;5.50;99.90;;;;;;4985299;28;20540;-37
2023/10/05 05:06:10;;;;;;;2.83;1.67;;;5.40;99.90;;;;;;4988010;28;20554;-37
2023/10/05 05:08:38;;;;;;;1.65;1.52;;;5.40;99.90;;;;;;4980822;28;20657;-38
2023/10/05 05:11:08;;;;;;;3.15;1.90;;;5.40;99.90;;;;;;4986030;28;20062;-40
2023/10/05 05:13:34;;;;;;;2.92;1.88;;;5.40;99.90;;;;;;4986324;28;20484;-35
2023/10/05 05:16:00;;;;;;;3.55;1.70;;;5.50;99.90;;;;;;4991029;28;20860;-39
2023/10/05 05:18:26;;;;;;;3.70;1.90;;;5.50;99.90;;;;;;4983444;28;20050;-38
2023/10/05 05:20:53;;;;;;;1.88;1.77;;;5.50;99.90;;;;;;4984489;28;20023;-39
2023/10/05 05:23:19;;;;;;;3.03;1.60;;;5.50;99.90;;;;;;4986968;28;20027;-40
2023/10/05 05:25:54;;;;;;;4.90;2.53;;;5.50;99.90;;;;;;4981986;28;20031;-40
2023/10/05 05:28:21;;;;;;;4.13;2.22;;;5.40;99.90;;;;;;4988676;28;20638;-36
2023/10/05 05:30:47;;;;;;;2.95;1.85;;;5.40;99.90;;;;;;4985048;28;20042;-40
2023/10/05 05:33:13;;;;;;;2.78;2.00;;;5.40;99.90;;;;;;4986032;28;20459;-40
2023/10/05 05:35:39;;;;;;;1.88;1.67;;;5.40;99.90;;;;;;4985398;28;20080;-36
2023/10/05 05:38:09;;;;;;;2.70;2.08;;;5.40;99.90;;;;;;4980533;28;20030;-34
2023/10/05 05:40:36;;;;;;;4.40;2.03;;;5.40;99.90;;;;;;4980778;28;20508;-38
2023/10/05 05:43:11;;;;;;;4.30;1.83;;;5.30;99.90;;;;;;4992493;28;20113;-37
2023/10/05 05:45:43;;;;;;;1.80;1.70;;;5.30;99.90;;;;;;4981250;28;20032;-40
2023/10/05 05:48:13;;;;;;;2.88;2.00;;;5.30;99.90;;;;;;4984849;28;20501;-36
2023/10/05 05:50:43;;;;;;;2.85;1.83;;;5.30;99.90;;;;;;4977684;28;20483;-37
2023/10/05 05:53:11;;;;;;;3.30;2.65;;;5.30;99.90;;;;;;4985019;28;20029;-29
2023/10/05 05:55:43;;;;;;;2.88;2.58;;;5.30;99.90;;;;;;4979898;28;20034;-31
2023/10/05 05:58:14;;;;;;;6.72;2.08;;;5.30;99.90;;;;;;4990492;28;20031;-31
2023/10/05 06:00:40;;;;;;;8.00;2.85;;;5.30;99.90;;;;;;4983844;28;20034;-37
2023/10/05 06:03:10;;;;;;;4.65;2.40;;;5.40;99.90;;;;;;4988816;28;20038;-37
2023/10/05 06:05:36;;;;;;;4.05;2.50;;;5.40;99.90;;;;;;4981740;28;20121;-41
2023/10/05 06:08:03;;;;;;;3.33;3.03;;;5.50;99.90;;;;;;4982232;28;20514;-40
2023/10/05 06:10:34;;;;;;;3.88;2.42;;;5.60;99.90;;;;;;4975527;28;20133;-38
2023/10/05 06:12:59;;;;;;;3.25;2.10;;;5.60;99.90;;;;;;4987723;28;20502;-41
2023/10/05 06:15:25;;;;;;;2.63;2.42;;;5.70;99.90;;;;;;4980638;28;20034;-39
2023/10/05 06:17:51;;;;;;;5.20;2.45;;;5.80;99.90;;;;;;4987266;28;20022;-40
2023/10/05 06:20:17;;;;;;;4.22;2.53;;;5.90;99.90;;;;;;4986543;28;20034;-41
2023/10/05 06:22:45;;;;;;;3.63;2.67;;;6.00;99.90;;;;;;4986241;28;20077;-39
2023/10/05 06:25:17;;;;;;;6.47;2.95;;;6.00;99.90;;;;;;4986404;28;20038;-40
2023/10/05 06:27:44;;;;;;;6.85;3.65;;;6.00;99.90;;;;;;4984697;28;20026;-38
2023/10/05 06:30:14;;;;;;;4.80;2.85;;;6.00;99.90;;;;;;4984200;28;20038;-42
2023/10/05 06:32:40;;;;;;;4.35;2.72;;;6.00;99.90;;;;;;4982137;28;20031;-34
2023/10/05 06:35:09;;;;;;;6.97;3.45;;;6.10;99.90;;;;;;4985866;28;20037;-40
2023/10/05 06:37:36;;;;;;;7.50;2.95;;;6.20;99.90;;;;;;4983577;28;20033;-39
2023/10/05 06:40:09;;;;;;;6.28;3.60;;;6.20;99.90;;;;;;4979911;28;20030;-41
2023/10/05 06:42:35;;;;;;;3.33;3.03;;;6.30;99.90;;;;;;4980817;28;20026;-40
2023/10/05 06:45:00;;;;;;;3.65;2.83;;;6.30;99.90;;;;;;4984222;28;20042;-42
2023/10/05 06:47:36;;;;;;;4.80;3.05;;;6.40;99.90;;;;;;4978057;28;20034;-39
2023/10/05 06:50:08;;;;;;;5.20;3.30;;;6.50;99.90;;;;;;4988775;28;20061;-40
2023/10/05 06:52:42;;;;;;;5.63;3.50;;;6.70;99.90;;;;;;4981209;28;20026;-40
2023/10/05 06:55:09;;;;;;;6.07;3.58;;;6.80;99.90;;;;;;4978138;28;20027;-40
2023/10/05 06:57:44;;;;;;;7.75;3.17;;;6.90;99.90;;;;;;4975165;28;20498;-40
2023/10/05 07:00:16;;;;;;;3.75;2.95;;;7.00;99.90;;;;;;4988132;28;20029;-41
2023/10/05 07:02:49;;;;;;;4.75;2.90;;;7.00;99.90;;;;;;4985102;28;21757;-41
2023/10/05 07:05:16;;;;;;;5.07;3.03;;;7.10;99.90;;;;;;4971770;28;20034;-36
2023/10/05 07:07:42;;;;;;;5.65;3.08;;;7.20;99.90;;;;;;4982722;28;20622;-40
2023/10/05 07:10:09;;;;;;;7.80;3.08;;;7.30;99.90;;;;;;4984716;28;20357;-32
2023/10/05 07:12:46;;;;;;;3.72;3.10;;;7.30;99.90;;;;;;4979905;28;20030;-32
2023/10/05 07:15:13;;;;;;;3.92;2.90;;;7.40;99.90;;;;;;4992423;28;20030;-31
2023/10/05 07:17:40;;;;;;;3.08;2.78;;;7.50;99.90;;;;;;4982009;28;20027;-34
2023/10/05 07:20:11;;;;;;;5.10;3.08;;;7.70;99.90;;;;;;4977352;28;20064;-34
2023/10/05 07:22:39;;;;;;;5.03;3.03;;;7.80;99.90;;;;;;4985644;28;20045;-34
2023/10/05 07:25:05;;;;;;;3.33;3.03;;;8.00;99.90;;;;;;4980281;28;20061;-32
2023/10/05 07:27:31;;;;;;;3.28;2.35;;;8.10;99.90;;;;;;4982584;28;20026;-34
2023/10/05 07:29:56;;;;;;;5.75;3.08;;;8.10;99.90;;;;;;4988832;28;20100;-32
2023/10/05 07:32:22;;;;;;;6.20;3.58;;;8.10;99.90;;;;;;4980159;28;20132;-30
2023/10/05 07:34:47;;;;;;;5.43;3.63;;;8.20;99.90;;;;;;4980962;28;20033;-30
2023/10/05 07:37:14;;;;;;;5.10;3.03;;;8.30;99.90;;;;;;4986388;28;20038;-31
2023/10/05 07:39:41;;;;;;;4.45;3.10;;;8.30;99.90;;;;;;4981073;28;20373;-36
2023/10/05 07:42:10;;;;;;;6.40;3.08;;;8.50;99.90;;;;;;4985747;28;20030;-31
2023/10/05 07:44:37;;;;;;;6.28;3.10;;;8.50;99.90;;;;;;4989399;28;20105;-31
2023/10/05 07:47:05;;;;;;;4.40;2.95;;;8.60;99.90;;;;;;4983297;28;20039;-30
2023/10/05 07:49:31;;;;;;;5.80;3.40;;;8.60;99.90;;;;;;4991142;28;20022;-30
2023/10/05 07:51:57;;;;;;;6.65;3.95;;;8.70;99.90;;;;;;4987769;28;20027;-30
2023/10/05 07:54:23;;;;;;;5.60;3.97;;;8.70;99.90;;;;;;4989538;28;20027;-32
2023/10/05 07:56:49;;;;;;;5.63;3.60;;;8.80;99.90;;;;;;4987731;28;20025;-31
2023/10/05 07:59:15;;;;;;;6.68;3.25;;;9.00;99.90;;;;;;4987322;28;20034;-30
2023/10/05 08:01:41;;;;;;;4.93;3.47;;;9.10;99.90;;;;;;4990252;28;20693;-31
2023/10/05 08:04:11;;;;;;;4.32;3.67;;;9.10;99.90;;;;;;4991375;28;20030;-29
2023/10/05 08:06:38;;;;;;;4.57;3.60;;;9.20;99.90;;;;;;4984511;28;20022;-31
2023/10/05 08:09:06;;;;;;;6.55;3.90;;;9.20;99.90;;;;;;4982375;28;20046;-31
2023/10/05 08:11:32;;;;;;;7.00;4.47;;;9.30;99.90;;;;;;4986060;28;20069;-30
2023/10/05 08:13:58;;;;;;;4.78;3.70;;;9.40;99.90;;;;;;4990906;28;20631;-31
2023/10/05 08:16:24;;;;;;;5.53;3.72;;;9.50;99.90;;;;;;4987270;28;20023;-30
2023/10/05 08:18:49;;;;;;;8.00;3.90;;;9.70;99.90;;;;;;4991889;28;20096;-30
2023/10/05 08:21:15;;;;;;;7.70;4.60;;;9.90;99.90;;;;;;4981879;28;20033;-32
2023/10/05 08:23:41;;;;;;;7.68;4.20;;;9.80;99.90;;;;;;4986750;28;20037;-32
2023/10/05 08:26:08;;;;;;;5.85;4.20;;;10.00;99.90;;;;;;4985426;28;20403;-33
2023/10/05 08:28:33;;;;;;;5.95;4.95;;;10.20;99.90;;;;;;4982933;28;20033;-32
2023/10/05 08:31:06;;;;;;;7.43;5.45;;;10.30;99.90;;;;;;4984666;28;20034;-32
2023/10/05 08:33:37;;;;;;;5.60;4.38;;;10.40;99.90;;;;;;4994648;28;20601;-32
2023/10/05 08:36:06;;;;;;;6.03;4.40;;;10.40;99.90;;;;;;4990989;28;20124;-32
2023/10/05 08:38:35;;;;;;;6.75;4.70;;;10.50;99.90;;;;;;4977794;28;20027;-34
2023/10/05 08:41:07;;;;;;;6.90;4.90;;;10.50;99.90;;;;;;4981238;28;20035;-40
2023/10/05 08:43:38;;;;;;;7.22;5.22;;;10.50;99.90;;;;;;4982159;28;20049;-40
2023/10/05 08:46:05;;;;;;;7.60;5.68;;;10.60;99.90;;;;;;4984530;28;20042;-39
2023/10/05 08:48:35;;;;;;;8.83;5.23;;;10.70;99.90;;;;;;4982562;28;20160;-40
2023/10/05 08:51:12;;;;;;;6.90;5.63;;;10.90;99.90;;;;;;4989549;28;20297;-38
2023/10/05 08:53:43;;;;;;;9.10;5.90;;;11.00;99.90;;;;;;4983885;28;20376;-38
2023/10/05 08:56:15;;;;;;;8.63;5.95;;;11.10;99.90;;;;;;4992134;28;20035;-40
2023/10/05 08:58:47;;;;;;;10.25;5.95;;;11.20;99.90;;;;;;4987419;28;20034;-36
2023/10/05 09:01:30;;;;;;;9.80;6.22;;;11.40;99.90;;;;;;4987340;28;20031;-39
2023/10/05 09:04:01;;;;;;;9.40;6.13;;;11.70;99.90;;;;;;4981175;28;20384;-39
2023/10/05 09:06:28;;;;;;;8.90;6.30;;;11.90;99.90;;;;;;4987829;28;20080;-34
2023/10/05 09:11:33;;;;;;;8.68;5.60;;;12.30;99.90;;;;;;4994007;28;20065;-39
2023/10/05 09:14:12;;;;;;;8.40;6.95;;;12.50;99.90;;;;;;4983281;28;20030;-40
2023/10/05 09:16:43;;;;;;;9.93;6.13;;;12.70;99.90;;;;;;4987198;28;20022;-34
2023/10/05 09:19:16;;;;;;;7.35;5.68;;;12.80;99.90;;;;;;4983059;28;20022;-40
2023/10/05 09:21:45;;;;;;;7.95;5.95;;;12.90;99.90;;;;;;4982665;28;20084;-40
2023/10/05 09:24:21;;;;;;;9.55;6.00;;;12.90;99.90;;;;;;4984734;28;20160;-38
2023/10/05 09:26:55;;;;;;;8.10;6.07;;;13.10;99.90;;;;;;4985006;28;20125;-36
2023/10/05 09:29:30;;;;;;;13.18;6.07;;;13.20;99.90;;;;;;4982199;28;20026;-40
2023/10/05 09:31:58;;;;;;;10.00;5.85;;;13.30;99.90;;;;;;4998444;28;20080;-30
2023/10/05 09:34:49;;;;;;;7.35;5.65;;;13.60;99.90;;;;;;4982252;28;20054;-30
2023/10/05 09:37:16;;;;;;;7.22;5.13;;;13.60;99.90;;;;;;4983341;28;20480;-31
2023/10/05 09:39:49;;;;;;;9.18;6.07;;;13.80;99.90;;;;;;4993343;28;20034;-30
2023/10/05 09:42:25;;;;;;;7.00;5.60;;;13.90;99.90;;;;;;4988613;28;20468;-31
2023/10/05 09:44:58;;;;;;;7.50;5.50;;;14.20;99.90;;;;;;4988238;28;20484;-32
2023/10/05 09:47:32;;;;;;;7.50;4.45;;;14.30;99.90;;;;;;4984395;28;20038;-30
2023/10/05 09:50:09;;;;;;;5.88;3.22;;;14.30;99.90;;;;;;4985172;28;20117;-32
2023/10/05 09:52:37;;;;;;;7.73;3.23;;;14.20;99.90;;;;;;4985953;28;20058;-30
2023/10/05 09:55:06;;;;;;;4.65;2.97;;;14.00;99.90;;;;;;4986324;28;20037;-30
2023/10/05 09:57:46;;;;;;;8.00;2.97;;;14.00;99.90;;;;;;4990676;28;20023;-30
2023/10/05 10:03:01;;;;;;;5.90;2.75;;;14.10;99.90;;;;;;4985184;28;20781;-30
2023/10/05 10:05:34;;;;;;;4.32;2.45;;;14.30;99.90;;;;;;4980804;28;20138;-30
2023/10/05 10:08:09;;;;;;;3.55;2.80;;;14.30;99.90;;;;;;4988883;28;20041;-34
2023/10/05 10:10:38;;;;;;;4.00;2.72;;;14.50;99.90;;;;;;4988833;28;20177;-32
2023/10/05 10:13:11;;;;;;;5.80;2.55;;;14.70;99.90;;;;;;4990608;28;20036;-32
2023/10/05 10:15:45;;;;;;;6.78;2.72;;;14.80;99.90;;;;;;4983325;28;20109;-31
2023/10/05 10:18:14;;;;;;;5.03;2.70;;;14.90;99.90;;;;;;4982072;28;20035;-30
2023/10/05 10:20:45;;;;;;;3.35;2.20;;;15.10;99.90;;;;;;4977499;28;20035;-36
2023/10/05 10:23:19;;;;;;;3.80;2.25;;;15.20;99.90;;;;;;4986161;28;20043;-31
2023/10/05 10:25:50;;;;;;;4.10;2.30;;;15.20;99.90;;;;;;4984493;28;20034;-30
2023/10/05 10:29:06;;;;;;;4.05;2.42;;;15.10;99.90;;;;;;4990790;28;20033;-30
2023/10/05 10:31:19;;;;;;;7.05;3.10;;;15.20;99.90;;;;;;4981059;28;20038;-30
2023/10/05 10:33:51;;;;;;;3.88;2.85;;;15.20;99.90;;;;;;4984167;28;20041;-31
2023/10/05 10:36:46;;;;;;;3.33;2.40;;;15.30;99.90;;;;;;4980748;28;20093;-30
2023/10/05 10:39:27;;;;;;;4.63;2.40;;;15.30;99.90;;;;;;4987630;28;20069;-36
2023/10/05 10:42:01;;;;;;;3.40;2.47;;;15.40;99.90;;;;;;4980854;28;20656;-30
2023/10/05 10:44:26;;;;;;;5.85;2.90;;;15.50;99.90;;;;;;4984522;28;20026;-31
2023/10/05 10:47:08;;;;;;;6.18;2.83;;;15.70;99.90;;;;;;4979230;28;20563;-31
2023/10/05 10:49:35;;;;;;;4.57;2.05;;;15.80;99.90;;;;;;4979798;28;20030;-32
2023/10/05 10:52:02;;;;;;;4.78;2.58;;;15.80;99.90;;;;;;4990027;28;20115;-32
2023/10/05 10:54:33;;;;;;;5.80;2.25;;;15.80;99.90;;;;;;4980097;28;20515;-31
2023/10/05 10:56:59;;;;;;;5.10;2.70;;;15.80;99.90;;;;;;4992319;28;20060;-32
2023/10/05 10:59:26;;;;;;;4.05;1.95;;;15.80;99.90;;;;;;4985807;28;20895;-30
2023/10/05 11:01:59;;;;;;;3.25;2.30;;;15.80;99.90;;;;;;4980685;28;20117;-30
2023/10/05 11:04:36;;;;;;;5.00;2.90;;;15.80;99.90;;;;;;4980291;28;20479;-30
2023/10/05 11:07:07;;;;;;;3.97;2.40;;;15.90;99.90;;;;;;4985296;28;20546;-30
2023/10/05 11:09:54;;;;;;;3.75;2.47;;;16.00;99.90;;;;;;4978958;28;20034;-32
2023/10/05 11:12:23;;;;;;;4.38;1.98;;;15.80;99.90;;;;;;4984187;28;20084;-29
2023/10/05 11:14:56;;;;;;;;;;;15.90;99.90;;;;;;4985996;28;20449;-30
2023/10/05 11:17:36;;;;;;;5.88;2.08;;;16.00;99.90;;;;;;4988481;28;20001;-32
2023/10/05 11:20:17;;;;;;;5.93;2.38;;;16.10;99.90;;;;;;4984200;28;20369;-29
2023/10/05 11:22:43;;;;;;;2.42;1.95;;;16.00;99.90;;;;;;4985779;28;20538;-30
2023/10/05 11:25:16;;;;;;;5.35;2.20;;;15.80;99.90;;;;;;4981953;28;20061;-30
2023/10/05 11:27:56;;;;;;;3.45;2.30;;;15.90;99.90;;;;;;4980174;28;20041;-31
2023/10/05 11:30:48;;;;;;;3.80;2.08;;;16.00;99.90;;;;;;4979467;28;20514;-29
2023/10/05 11:33:17;;;;;;;6.93;2.30;;;16.20;99.90;;;;;;4987470;28;20045;-29
2023/10/05 11:35:52;;;;;;;4.78;1.88;;;16.40;99.90;;;;;;4986225;28;20034;-31
2023/10/05 11:38:19;;;;;;;9.50;2.88;;;16.40;99.90;;;;;;4983495;28;20042;-30
2023/10/05 11:40:55;;;;;;;5.25;2.17;;;16.40;99.90;;;;;;4982166;28;20036;-30
2023/10/05 11:43:23;;;;;;;7.18;2.20;;;16.40;99.90;;;;;;4987320;28;20113;-30
2023/10/05 11:48:55;;;;;;;5.32;2.03;;;16.50;99.90;;;;;;4989232;28;20034;-30
2023/10/05 11:51:26;;;;;;;4.40;1.90;;;16.30;99.90;;;;;;4983511;28;20072;-32
2023/10/05 11:53:55;;;;;;;2.58;1.70;;;16.30;99.90;;;;;;4980294;28;20388;-32
2023/10/05 11:56:22;;;;;;;3.85;2.00;;;16.50;99.90;;;;;;4977037;28;20030;-33
2023/10/05 11:58:48;;;;;;;3.22;1.70;;;16.60;99.90;;;;;;4985396;28;20030;-33
2023/10/05 12:01:19;;;;;;;1.80;1.67;;;16.70;99.90;;;;;;4972961;28;20073;-32
2023/10/05 12:03:45;;;;;;;1.88;1.48;;;16.80;99.90;;;;;;4985097;28;20277;-32
2023/10/05 12:06:12;;;;;;;2.08;1.63;;;16.70;99.90;;;;;;4986952;28;20030;-32
2023/10/05 12:08:38;;;;;;;3.60;1.83;;;16.70;99.90;;;;;;4985944;28;20031;-35
2023/10/05 12:11:04;;;;;;;3.15;2.00;;;16.80;99.90;;;;;;4979262;28;20039;-39
2023/10/05 12:13:29;;;;;;;3.55;2.00;;;16.90;99.90;;;;;;4985010;28;20027;-37
2023/10/05 12:15:55;;;;;;;4.95;1.83;;;17.00;99.90;;;;;;4986202;28;20108;-41
2023/10/05 12:18:22;;;;;;;3.33;1.88;;;16.90;99.90;;;;;;4982500;28;20046;-41
2023/10/05 12:20:51;;;;;;;2.92;1.95;;;17.00;99.90;;;;;;4981752;28;20520;-41
2023/10/05 12:23:17;;;;;;;2.97;1.60;;;17.10;99.90;;;;;;4986446;28;20038;-41
2023/10/05 12:25:45;;;;;;;2.42;1.77;;;17.20;99.90;;;;;;4974856;28;20035;-38
2023/10/05 12:28:11;;;;;;;3.40;1.90;;;16.90;99.90;;;;;;4981507;28;20034;-40
2023/10/05 12:30:39;;;;;;;3.28;1.88;;;16.80;99.90;;;;;;4983890;28;20086;-39
2023/10/05 12:33:06;;;;;;;;;;;16.80;99.90;;;;;;4987509;28;20030;-40
2023/10/05 12:35:32;;;;;;;5.35;2.28;;;16.80;99.90;;;;;;4987205;28;19917;-39
2023/10/05 12:37:58;;;;;;;2.97;1.50;;;16.70;99.90;;;;;;4990452;28;20018;-40
2023/10/05 12:40:33;;;;;;;2.53;1.40;;;16.80;99.90;;;;;;4986046;28;20062;-41
2023/10/05 12:43:00;;;;;;;3.08;1.92;;;16.70;99.90;;;;;;4981548;28;20041;-40
2023/10/05 12:45:26;;;;;;;4.20;1.77;;;16.80;99.90;;;;;;4984806;28;20391;-42
2023/10/05 12:47:54;;;;;;;3.80;1.98;;;16.90;99.90;;;;;;4985565;28;20494;-41
2023/10/05 12:50:21;;;;;;;3.58;1.65;;;16.90;99.90;;;;;;4983081;28;20062;-40
2023/10/05 12:52:51;;;;;;;2.85;1.50;;;16.90;99.90;;;;;;4982189;28;20041;-40
2023/10/05 12:55:22;;;;;;;2.30;1.70;;;17.00;99.90;;;;;;4990618;28;20034;-40
2023/10/05 12:57:52;;;;;;;4.18;2.00;;;17.10;99.90;;;;;;4984879;28;20544;-40
2023/10/05 13:00:28;;;;;;;2.92;1.50;;;17.20;99.90;;;;;;4983562;28;20041;-40
2023/10/05 13:02:55;;;;;;;3.83;1.80;;;17.20;99.90;;;;;;4985738;28;20577;-39
2023/10/05 13:05:43;;;;;;;4.65;1.75;;;17.20;99.90;;;;;;4981527;28;20550;-39
2023/10/05 13:08:10;;;;;;;3.67;1.90;;;17.30;99.90;;;;;;4979681;28;20058;-40
2023/10/05 13:10:37;;;;;;;6.57;1.77;;;17.20;99.90;;;;;;4989081;28;20046;-38
2023/10/05 13:13:25;;;;;;;4.32;2.10;;;17.20;99.90;;;;;;4981651;28;20039;-40
2023/10/05 13:15:50;;;;;;;2.33;1.60;;;17.20;99.90;;;;;;4985402;28;20388;-38
2023/10/05 13:18:19;;;;;;;3.53;1.92;;;17.00;99.90;;;;;;4982911;28;20050;-40
2023/10/05 13:20:47;;;;;;;4.35;1.65;;;17.00;99.90;;;;;;4983808;28;20101;-40
2023/10/05 13:23:13;;;;;;;3.95;1.70;;;16.90;99.90;;;;;;4992487;28;20038;-40
2023/10/05 13:25:40;;;;;;;3.70;2.00;;;16.70;99.90;;;;;;4986754;28;20526;-35
2023/10/05 13:28:11;;;;;;;2.10;1.48;;;16.60;99.90;;;;;;4980198;28;20086;-38
2023/10/05 13:30:46;;;;;;;5.68;1.90;;;16.50;99.90;;;;;;4977366;28;20389;-38